sensor_id;sensor_type;location;lat;lon;timestamp;P1;durP1;ratioP1;P2;durP2;ratioP2
51467;SDS011;37545;45.302;-122.946;2022-11-25T00:01:58;6.13;;;3.03;;
51467;SDS011;37545;45.302;-122.946;2022-11-25T00:04:27;7.63;;;3.78;;
51467;SDS011;37545;45.302;-122.946;2022-11-25T00:07:01;5.75;;;3.75;;
51467;SDS011;37545;45.302;-122.946;2022-11-25T00:09:30;10.00;;;4.78;;
51467;SDS011;37545;45.302;-122.946;2022-11-25T00:11:59;7.22;;;4.07;;
51467;SDS011;37545;45.302;-122.946;2022-11-25T00:14:29;9.07;;;3.78;;
51467;SDS011;37545;45.302;-122.946;2022-11-25T00:16:59;7.43;;;3.75;;
51467;SDS011;37545;45.302;-122.946;2022-11-25T00:19:28;7.63;;;4.45;;
51467;SDS011;37545;45.302;-122.946;2022-11-25T00:21:58;7.07;;;4.40;;
51467;SDS011;37545;45.302;-122.946;2022-11-25T00:24:26;9.55;;;4.22;;
51467;SDS011;37545;45.302;-122.946;2022-11-25T00:26:57;10.25;;;3.97;;
51467;SDS011;37545;45.302;-122.946;2022-11-25T00:29:31;4.93;;;3.22;;
51467;SDS011;37545;45.302;-122.946;2022-11-25T00:32:00;13.20;;;4.03;;
51467;SDS011;37545;45.302;-122.946;2022-11-25T00:34:28;7.57;;;3.72;;
51467;SDS011;37545;45.302;-122.946;2022-11-25T00:36:57;17.75;;;4.40;;
51467;SDS011;37545;45.302;-122.946;2022-11-25T00:39:26;9.63;;;3.45;;
51467;SDS011;37545;45.302;-122.946;2022-11-25T00:41:55;6.47;;;3.50;;
51467;SDS011;37545;45.302;-122.946;2022-11-25T00:44:44;9.85;;;4.28;;
51467;SDS011;37545;45.302;-122.946;2022-11-25T00:47:13;6.35;;;3.15;;
51467;SDS011;37545;45.302;-122.946;2022-11-25T00:49:44;12.40;;;3.58;;
51467;SDS011;37545;45.302;-122.946;2022-11-25T00:52:15;8.48;;;3.65;;
51467;SDS011;37545;45.302;-122.946;2022-11-25T00:54:45;5.80;;;3.70;;
51467;SDS011;37545;45.302;-122.946;2022-11-25T00:57:18;9.07;;;3.88;;
51467;SDS011;37545;45.302;-122.946;2022-11-25T00:59:56;15.43;;;3.88;;
51467;SDS011;37545;45.302;-122.946;2022-11-25T01:02:28;7.85;;;3.55;;
51467;SDS011;37545;45.302;-122.946;2022-11-25T01:04:56;9.40;;;3.58;;
51467;SDS011;37545;45.302;-122.946;2022-11-25T01:07:25;7.22;;;3.90;;
51467;SDS011;37545;45.302;-122.946;2022-11-25T01:09:54;9.48;;;3.78;;
51467;SDS011;37545;45.302;-122.946;2022-11-25T01:12:25;19.35;;;4.70;;
51467;SDS011;37545;45.302;-122.946;2022-11-25T01:14:54;13.02;;;4.53;;
51467;SDS011;37545;45.302;-122.946;2022-11-25T01:17:24;6.65;;;4.05;;
51467;SDS011;37545;45.302;-122.946;2022-11-25T01:19:53;11.05;;;4.20;;
51467;SDS011;37545;45.302;-122.946;2022-11-25T01:22:21;8.07;;;3.58;;
51467;SDS011;37545;45.302;-122.946;2022-11-25T01:24:50;8.00;;;4.07;;
51467;SDS011;37545;45.302;-122.946;2022-11-25T01:27:19;8.27;;;4.57;;
51467;SDS011;37545;45.302;-122.946;2022-11-25T01:29:54;10.10;;;4.13;;
51467;SDS011;37545;45.302;-122.946;2022-11-25T01:32:24;8.30;;;3.63;;
51467;SDS011;37545;45.302;-122.946;2022-11-25T01:34:53;10.52;;;5.07;;
51467;SDS011;37545;45.302;-122.946;2022-11-25T01:37:21;12.45;;;4.88;;
51467;SDS011;37545;45.302;-122.946;2022-11-25T01:39:50;9.70;;;5.28;;
51467;SDS011;37545;45.302;-122.946;2022-11-25T01:42:18;9.40;;;4.45;;
51467;SDS011;37545;45.302;-122.946;2022-11-25T01:47:50;9.38;;;5.20;;
51467;SDS011;37545;45.302;-122.946;2022-11-25T01:50:26;11.65;;;4.15;;
51467;SDS011;37545;45.302;-122.946;2022-11-25T01:52:58;13.80;;;5.03;;
51467;SDS011;37545;45.302;-122.946;2022-11-25T01:55:29;17.15;;;4.85;;
51467;SDS011;37545;45.302;-122.946;2022-11-25T01:58:01;8.77;;;4.73;;
51467;SDS011;37545;45.302;-122.946;2022-11-25T02:03:04;8.63;;;3.92;;
51467;SDS011;37545;45.302;-122.946;2022-11-25T02:05:35;8.40;;;4.70;;
51467;SDS011;37545;45.302;-122.946;2022-11-25T02:08:14;13.15;;;5.97;;
51467;SDS011;37545;45.302;-122.946;2022-11-25T02:10:43;10.20;;;4.88;;
51467;SDS011;37545;45.302;-122.946;2022-11-25T02:13:20;13.82;;;4.38;;
51467;SDS011;37545;45.302;-122.946;2022-11-25T02:15:50;9.77;;;4.25;;
51467;SDS011;37545;45.302;-122.946;2022-11-25T02:18:20;7.47;;;4.05;;
51467;SDS011;37545;45.302;-122.946;2022-11-25T02:20:49;9.35;;;4.90;;
51467;SDS011;37545;45.302;-122.946;2022-11-25T02:23:30;17.80;;;5.00;;
51467;SDS011;37545;45.302;-122.946;2022-11-25T02:26:08;10.88;;;4.90;;
51467;SDS011;37545;45.302;-122.946;2022-11-25T02:28:40;8.40;;;4.45;;
51467;SDS011;37545;45.302;-122.946;2022-11-25T02:31:09;15.20;;;5.30;;
51467;SDS011;37545;45.302;-122.946;2022-11-25T02:33:38;9.50;;;4.38;;
51467;SDS011;37545;45.302;-122.946;2022-11-25T02:36:09;9.93;;;4.40;;
51467;SDS011;37545;45.302;-122.946;2022-11-25T02:38:45;9.73;;;4.60;;
51467;SDS011;37545;45.302;-122.946;2022-11-25T02:41:19;10.55;;;4.15;;
51467;SDS011;37545;45.302;-122.946;2022-11-25T02:43:51;7.18;;;3.58;;
51467;SDS011;37545;45.302;-122.946;2022-11-25T02:46:20;7.78;;;4.35;;
51467;SDS011;37545;45.302;-122.946;2022-11-25T02:48:53;9.20;;;4.00;;
51467;SDS011;37545;45.302;-122.946;2022-11-25T02:51:24;6.45;;;3.42;;
51467;SDS011;37545;45.302;-122.946;2022-11-25T02:53:54;7.57;;;4.07;;
51467;SDS011;37545;45.302;-122.946;2022-11-25T02:56:25;12.18;;;5.10;;
51467;SDS011;37545;45.302;-122.946;2022-11-25T02:58:55;7.28;;;3.63;;
51467;SDS011;37545;45.302;-122.946;2022-11-25T03:01:24;7.15;;;4.10;;
51467;SDS011;37545;45.302;-122.946;2022-11-25T03:03:53;9.55;;;4.93;;
51467;SDS011;37545;45.302;-122.946;2022-11-25T03:06:21;6.82;;;3.60;;
51467;SDS011;37545;45.302;-122.946;2022-11-25T03:08:52;10.52;;;4.35;;
51467;SDS011;37545;45.302;-122.946;2022-11-25T03:11:21;7.45;;;4.72;;
51467;SDS011;37545;45.302;-122.946;2022-11-25T03:14:12;6.50;;;4.03;;
51467;SDS011;37545;45.302;-122.946;2022-11-25T03:16:40;8.02;;;3.55;;
51467;SDS011;37545;45.302;-122.946;2022-11-25T03:19:09;8.77;;;3.75;;
51467;SDS011;37545;45.302;-122.946;2022-11-25T03:21:38;4.32;;;2.88;;
51467;SDS011;37545;45.302;-122.946;2022-11-25T03:24:09;6.57;;;3.67;;
51467;SDS011;37545;45.302;-122.946;2022-11-25T03:26:40;6.97;;;3.22;;
51467;SDS011;37545;45.302;-122.946;2022-11-25T03:29:08;6.05;;;3.28;;
51467;SDS011;37545;45.302;-122.946;2022-11-25T03:31:39;8.68;;;3.92;;
51467;SDS011;37545;45.302;-122.946;2022-11-25T03:34:09;5.88;;;3.65;;
51467;SDS011;37545;45.302;-122.946;2022-11-25T03:36:38;4.78;;;3.03;;
51467;SDS011;37545;45.302;-122.946;2022-11-25T03:39:07;6.50;;;3.55;;
51467;SDS011;37545;45.302;-122.946;2022-11-25T03:41:35;6.90;;;3.95;;
51467;SDS011;37545;45.302;-122.946;2022-11-25T03:44:04;6.85;;;3.30;;
51467;SDS011;37545;45.302;-122.946;2022-11-25T03:46:48;6.32;;;3.55;;
51467;SDS011;37545;45.302;-122.946;2022-11-25T03:49:16;6.40;;;4.10;;
51467;SDS011;37545;45.302;-122.946;2022-11-25T03:51:47;6.78;;;3.88;;
51467;SDS011;37545;45.302;-122.946;2022-11-25T03:54:16;6.82;;;3.28;;
51467;SDS011;37545;45.302;-122.946;2022-11-25T03:56:46;9.02;;;3.60;;
51467;SDS011;37545;45.302;-122.946;2022-11-25T03:59:15;3.92;;;2.80;;
51467;SDS011;37545;45.302;-122.946;2022-11-25T04:01:44;5.88;;;3.40;;
51467;SDS011;37545;45.302;-122.946;2022-11-25T04:04:22;6.50;;;3.80;;
51467;SDS011;37545;45.302;-122.946;2022-11-25T04:06:51;7.68;;;2.90;;
51467;SDS011;37545;45.302;-122.946;2022-11-25T04:09:20;4.22;;;2.97;;
51467;SDS011;37545;45.302;-122.946;2022-11-25T04:11:50;11.93;;;3.72;;
51467;SDS011;37545;45.302;-122.946;2022-11-25T04:14:35;9.18;;;3.65;;
51467;SDS011;37545;45.302;-122.946;2022-11-25T04:17:04;4.80;;;3.03;;
51467;SDS011;37545;45.302;-122.946;2022-11-25T04:19:34;6.18;;;3.67;;
51467;SDS011;37545;45.302;-122.946;2022-11-25T04:22:03;5.03;;;3.42;;
51467;SDS011;37545;45.302;-122.946;2022-11-25T04:24:32;5.82;;;3.83;;
51467;SDS011;37545;45.302;-122.946;2022-11-25T04:27:01;5.70;;;2.85;;
51467;SDS011;37545;45.302;-122.946;2022-11-25T04:29:30;5.68;;;3.60;;
51467;SDS011;37545;45.302;-122.946;2022-11-25T04:31:59;6.65;;;3.80;;
51467;SDS011;37545;45.302;-122.946;2022-11-25T04:34:27;7.53;;;3.25;;
51467;SDS011;37545;45.302;-122.946;2022-11-25T04:36:58;4.43;;;3.00;;
51467;SDS011;37545;45.302;-122.946;2022-11-25T04:39:27;8.55;;;4.28;;
51467;SDS011;37545;45.302;-122.946;2022-11-25T04:41:57;7.30;;;4.10;;
51467;SDS011;37545;45.302;-122.946;2022-11-25T04:44:38;5.72;;;3.67;;
51467;SDS011;37545;45.302;-122.946;2022-11-25T04:47:07;8.88;;;3.65;;
51467;SDS011;37545;45.302;-122.946;2022-11-25T04:49:36;6.38;;;3.42;;
51467;SDS011;37545;45.302;-122.946;2022-11-25T04:52:06;6.53;;;3.80;;
51467;SDS011;37545;45.302;-122.946;2022-11-25T04:54:35;8.98;;;4.70;;
51467;SDS011;37545;45.302;-122.946;2022-11-25T04:57:04;4.28;;;3.50;;
51467;SDS011;37545;45.302;-122.946;2022-11-25T04:59:33;9.10;;;3.78;;
51467;SDS011;37545;45.302;-122.946;2022-11-25T05:02:11;7.68;;;3.42;;
51467;SDS011;37545;45.302;-122.946;2022-11-25T05:04:41;6.68;;;3.55;;
51467;SDS011;37545;45.302;-122.946;2022-11-25T05:07:14;9.85;;;5.32;;
51467;SDS011;37545;45.302;-122.946;2022-11-25T05:09:44;7.50;;;4.10;;
51467;SDS011;37545;45.302;-122.946;2022-11-25T05:12:13;7.95;;;4.88;;
51467;SDS011;37545;45.302;-122.946;2022-11-25T05:14:43;9.27;;;4.78;;
51467;SDS011;37545;45.302;-122.946;2022-11-25T05:17:13;9.10;;;4.70;;
51467;SDS011;37545;45.302;-122.946;2022-11-25T05:19:43;7.65;;;4.22;;
51467;SDS011;37545;45.302;-122.946;2022-11-25T05:22:14;9.05;;;4.28;;
51467;SDS011;37545;45.302;-122.946;2022-11-25T05:24:44;6.22;;;4.05;;
51467;SDS011;37545;45.302;-122.946;2022-11-25T05:27:13;9.43;;;4.80;;
51467;SDS011;37545;45.302;-122.946;2022-11-25T05:29:42;8.07;;;4.63;;
51467;SDS011;37545;45.302;-122.946;2022-11-25T05:32:11;8.02;;;4.22;;
51467;SDS011;37545;45.302;-122.946;2022-11-25T05:34:40;6.53;;;3.88;;
51467;SDS011;37545;45.302;-122.946;2022-11-25T05:37:09;7.65;;;3.97;;
51467;SDS011;37545;45.302;-122.946;2022-11-25T05:39:41;12.27;;;4.93;;
51467;SDS011;37545;45.302;-122.946;2022-11-25T05:42:10;9.27;;;4.55;;
51467;SDS011;37545;45.302;-122.946;2022-11-25T05:44:38;9.68;;;4.82;;
51467;SDS011;37545;45.302;-122.946;2022-11-25T05:47:07;8.45;;;4.32;;
51467;SDS011;37545;45.302;-122.946;2022-11-25T05:49:36;9.23;;;4.40;;
51467;SDS011;37545;45.302;-122.946;2022-11-25T05:52:04;7.63;;;4.45;;
51467;SDS011;37545;45.302;-122.946;2022-11-25T05:54:35;7.30;;;4.10;;
51467;SDS011;37545;45.302;-122.946;2022-11-25T05:57:03;10.00;;;4.90;;
51467;SDS011;37545;45.302;-122.946;2022-11-25T05:59:32;8.00;;;4.35;;
51467;SDS011;37545;45.302;-122.946;2022-11-25T06:02:01;9.25;;;4.43;;
51467;SDS011;37545;45.302;-122.946;2022-11-25T06:04:30;7.93;;;4.53;;
51467;SDS011;37545;45.302;-122.946;2022-11-25T06:06:58;9.02;;;4.15;;
51467;SDS011;37545;45.302;-122.946;2022-11-25T06:09:27;10.07;;;4.43;;
51467;SDS011;37545;45.302;-122.946;2022-11-25T06:11:58;8.60;;;4.50;;
51467;SDS011;37545;45.302;-122.946;2022-11-25T06:14:26;4.40;;;3.30;;
51467;SDS011;37545;45.302;-122.946;2022-11-25T06:16:55;8.63;;;4.50;;
51467;SDS011;37545;45.302;-122.946;2022-11-25T06:19:24;6.18;;;4.05;;
51467;SDS011;37545;45.302;-122.946;2022-11-25T06:21:53;12.23;;;4.70;;
51467;SDS011;37545;45.302;-122.946;2022-11-25T06:24:21;9.30;;;3.67;;
51467;SDS011;37545;45.302;-122.946;2022-11-25T06:26:50;7.00;;;4.30;;
51467;SDS011;37545;45.302;-122.946;2022-11-25T06:29:20;13.23;;;4.40;;
51467;SDS011;37545;45.302;-122.946;2022-11-25T06:31:49;9.90;;;4.93;;
51467;SDS011;37545;45.302;-122.946;2022-11-25T06:34:18;11.80;;;5.28;;
51467;SDS011;37545;45.302;-122.946;2022-11-25T06:36:47;9.15;;;3.95;;
51467;SDS011;37545;45.302;-122.946;2022-11-25T06:39:16;7.90;;;4.95;;
51467;SDS011;37545;45.302;-122.946;2022-11-25T06:41:45;12.80;;;4.05;;
51467;SDS011;37545;45.302;-122.946;2022-11-25T06:44:14;8.13;;;4.28;;
51467;SDS011;37545;45.302;-122.946;2022-11-25T06:46:44;8.25;;;4.60;;
51467;SDS011;37545;45.302;-122.946;2022-11-25T06:49:13;11.52;;;5.18;;
51467;SDS011;37545;45.302;-122.946;2022-11-25T06:51:42;8.48;;;4.45;;
51467;SDS011;37545;45.302;-122.946;2022-11-25T06:54:10;11.77;;;5.68;;
51467;SDS011;37545;45.302;-122.946;2022-11-25T06:56:39;8.70;;;4.55;;
51467;SDS011;37545;45.302;-122.946;2022-11-25T06:59:08;9.82;;;4.88;;
51467;SDS011;37545;45.302;-122.946;2022-11-25T07:01:36;8.65;;;4.20;;
51467;SDS011;37545;45.302;-122.946;2022-11-25T07:04:07;9.30;;;4.90;;
51467;SDS011;37545;45.302;-122.946;2022-11-25T07:06:35;10.02;;;4.10;;
51467;SDS011;37545;45.302;-122.946;2022-11-25T07:09:04;10.50;;;4.88;;
51467;SDS011;37545;45.302;-122.946;2022-11-25T07:11:34;15.45;;;4.95;;
51467;SDS011;37545;45.302;-122.946;2022-11-25T07:14:04;11.88;;;5.00;;
51467;SDS011;37545;45.302;-122.946;2022-11-25T07:16:36;13.02;;;5.03;;
51467;SDS011;37545;45.302;-122.946;2022-11-25T07:19:07;10.25;;;4.63;;
51467;SDS011;37545;45.302;-122.946;2022-11-25T07:21:37;10.90;;;4.90;;
51467;SDS011;37545;45.302;-122.946;2022-11-25T07:24:06;9.45;;;5.22;;
51467;SDS011;37545;45.302;-122.946;2022-11-25T07:26:37;15.32;;;6.05;;
51467;SDS011;37545;45.302;-122.946;2022-11-25T07:29:08;11.25;;;4.68;;
51467;SDS011;37545;45.302;-122.946;2022-11-25T07:31:38;9.30;;;4.65;;
51467;SDS011;37545;45.302;-122.946;2022-11-25T07:34:11;10.70;;;5.10;;
51467;SDS011;37545;45.302;-122.946;2022-11-25T07:36:42;10.82;;;5.40;;
51467;SDS011;37545;45.302;-122.946;2022-11-25T07:39:11;12.93;;;5.53;;
51467;SDS011;37545;45.302;-122.946;2022-11-25T07:41:41;9.77;;;5.38;;
51467;SDS011;37545;45.302;-122.946;2022-11-25T07:44:11;10.75;;;5.82;;
51467;SDS011;37545;45.302;-122.946;2022-11-25T07:46:41;11.75;;;5.25;;
51467;SDS011;37545;45.302;-122.946;2022-11-25T07:49:12;10.23;;;5.00;;
51467;SDS011;37545;45.302;-122.946;2022-11-25T07:51:43;12.93;;;5.70;;
51467;SDS011;37545;45.302;-122.946;2022-11-25T07:54:15;12.00;;;5.70;;
51467;SDS011;37545;45.302;-122.946;2022-11-25T07:56:45;12.93;;;5.75;;
51467;SDS011;37545;45.302;-122.946;2022-11-25T07:59:15;11.48;;;5.60;;
51467;SDS011;37545;45.302;-122.946;2022-11-25T08:01:45;13.30;;;5.35;;
51467;SDS011;37545;45.302;-122.946;2022-11-25T08:04:17;11.90;;;5.63;;
51467;SDS011;37545;45.302;-122.946;2022-11-25T08:06:46;11.77;;;5.72;;
51467;SDS011;37545;45.302;-122.946;2022-11-25T08:09:17;14.05;;;6.43;;
51467;SDS011;37545;45.302;-122.946;2022-11-25T08:11:47;11.55;;;5.45;;
51467;SDS011;37545;45.302;-122.946;2022-11-25T08:14:16;13.73;;;7.03;;
51467;SDS011;37545;45.302;-122.946;2022-11-25T08:16:45;13.63;;;5.85;;
51467;SDS011;37545;45.302;-122.946;2022-11-25T08:19:14;13.50;;;6.53;;
51467;SDS011;37545;45.302;-122.946;2022-11-25T08:21:45;12.07;;;5.38;;
51467;SDS011;37545;45.302;-122.946;2022-11-25T08:24:14;15.77;;;7.30;;
51467;SDS011;37545;45.302;-122.946;2022-11-25T08:26:44;14.15;;;6.22;;
51467;SDS011;37545;45.302;-122.946;2022-11-25T08:29:13;14.35;;;6.38;;
51467;SDS011;37545;45.302;-122.946;2022-11-25T08:31:43;16.13;;;6.55;;
51467;SDS011;37545;45.302;-122.946;2022-11-25T08:34:15;13.63;;;6.35;;
51467;SDS011;37545;45.302;-122.946;2022-11-25T08:36:46;15.95;;;7.63;;
51467;SDS011;37545;45.302;-122.946;2022-11-25T08:39:15;11.48;;;5.63;;
51467;SDS011;37545;45.302;-122.946;2022-11-25T08:41:45;16.00;;;7.53;;
51467;SDS011;37545;45.302;-122.946;2022-11-25T08:44:13;16.65;;;7.10;;
51467;SDS011;37545;45.302;-122.946;2022-11-25T08:46:51;14.30;;;6.80;;
51467;SDS011;37545;45.302;-122.946;2022-11-25T08:49:22;10.70;;;5.78;;
51467;SDS011;37545;45.302;-122.946;2022-11-25T08:51:51;11.15;;;5.25;;
51467;SDS011;37545;45.302;-122.946;2022-11-25T08:54:26;15.30;;;5.68;;
51467;SDS011;37545;45.302;-122.946;2022-11-25T08:56:55;14.93;;;6.80;;
51467;SDS011;37545;45.302;-122.946;2022-11-25T08:59:25;12.95;;;6.00;;
51467;SDS011;37545;45.302;-122.946;2022-11-25T09:01:53;10.98;;;5.40;;
51467;SDS011;37545;45.302;-122.946;2022-11-25T09:04:24;12.63;;;6.32;;
51467;SDS011;37545;45.302;-122.946;2022-11-25T09:06:53;12.52;;;6.40;;
51467;SDS011;37545;45.302;-122.946;2022-11-25T09:09:21;10.82;;;5.30;;
51467;SDS011;37545;45.302;-122.946;2022-11-25T09:11:50;12.05;;;5.97;;
51467;SDS011;37545;45.302;-122.946;2022-11-25T09:14:19;14.75;;;5.97;;
51467;SDS011;37545;45.302;-122.946;2022-11-25T09:16:47;16.50;;;7.35;;
51467;SDS011;37545;45.302;-122.946;2022-11-25T09:19:16;13.85;;;6.63;;
51467;SDS011;37545;45.302;-122.946;2022-11-25T09:21:47;16.65;;;7.10;;
51467;SDS011;37545;45.302;-122.946;2022-11-25T09:24:16;15.35;;;6.15;;
51467;SDS011;37545;45.302;-122.946;2022-11-25T09:26:45;14.50;;;6.18;;
51467;SDS011;37545;45.302;-122.946;2022-11-25T09:29:14;15.73;;;6.25;;
51467;SDS011;37545;45.302;-122.946;2022-11-25T09:31:42;15.40;;;6.75;;
51467;SDS011;37545;45.302;-122.946;2022-11-25T09:34:11;15.63;;;6.85;;
51467;SDS011;37545;45.302;-122.946;2022-11-25T09:36:40;13.35;;;6.47;;
51467;SDS011;37545;45.302;-122.946;2022-11-25T09:39:12;16.25;;;6.22;;
51467;SDS011;37545;45.302;-122.946;2022-11-25T09:41:47;9.85;;;5.20;;
51467;SDS011;37545;45.302;-122.946;2022-11-25T09:44:46;15.55;;;6.95;;
51467;SDS011;37545;45.302;-122.946;2022-11-25T09:47:40;12.15;;;5.75;;
51467;SDS011;37545;45.302;-122.946;2022-11-25T09:50:16;16.48;;;5.55;;
51467;SDS011;37545;45.302;-122.946;2022-11-25T09:53:03;18.83;;;7.70;;
51467;SDS011;37545;45.302;-122.946;2022-11-25T09:55:50;12.70;;;5.90;;
51467;SDS011;37545;45.302;-122.946;2022-11-25T09:58:27;15.68;;;6.63;;
51467;SDS011;37545;45.302;-122.946;2022-11-25T10:00:59;16.15;;;6.15;;
51467;SDS011;37545;45.302;-122.946;2022-11-25T10:03:32;11.95;;;5.60;;
51467;SDS011;37545;45.302;-122.946;2022-11-25T10:06:12;14.32;;;6.45;;
51467;SDS011;37545;45.302;-122.946;2022-11-25T10:08:44;14.18;;;6.60;;
51467;SDS011;37545;45.302;-122.946;2022-11-25T10:11:20;13.90;;;6.47;;
51467;SDS011;37545;45.302;-122.946;2022-11-25T10:13:55;13.55;;;5.97;;
51467;SDS011;37545;45.302;-122.946;2022-11-25T10:16:29;11.88;;;6.05;;
51467;SDS011;37545;45.302;-122.946;2022-11-25T10:19:04;10.27;;;5.38;;
51467;SDS011;37545;45.302;-122.946;2022-11-25T10:21:37;11.20;;;5.88;;
51467;SDS011;37545;45.302;-122.946;2022-11-25T10:24:08;12.90;;;5.60;;
51467;SDS011;37545;45.302;-122.946;2022-11-25T10:26:44;12.73;;;6.72;;
51467;SDS011;37545;45.302;-122.946;2022-11-25T10:29:21;10.43;;;4.75;;
51467;SDS011;37545;45.302;-122.946;2022-11-25T10:32:03;11.38;;;6.07;;
51467;SDS011;37545;45.302;-122.946;2022-11-25T10:34:47;11.55;;;4.97;;
51467;SDS011;37545;45.302;-122.946;2022-11-25T10:37:22;13.68;;;5.50;;
51467;SDS011;37545;45.302;-122.946;2022-11-25T10:39:54;12.85;;;6.07;;
51467;SDS011;37545;45.302;-122.946;2022-11-25T10:42:25;10.80;;;4.78;;
51467;SDS011;37545;45.302;-122.946;2022-11-25T10:44:57;17.15;;;6.90;;
51467;SDS011;37545;45.302;-122.946;2022-11-25T10:47:31;10.95;;;5.22;;
51467;SDS011;37545;45.302;-122.946;2022-11-25T10:50:05;11.07;;;4.90;;
51467;SDS011;37545;45.302;-122.946;2022-11-25T10:52:41;11.80;;;6.00;;
51467;SDS011;37545;45.302;-122.946;2022-11-25T10:55:17;17.67;;;6.93;;
51467;SDS011;37545;45.302;-122.946;2022-11-25T10:57:50;14.90;;;6.03;;
51467;SDS011;37545;45.302;-122.946;2022-11-25T11:00:29;15.60;;;6.05;;
51467;SDS011;37545;45.302;-122.946;2022-11-25T11:03:00;15.55;;;6.90;;
51467;SDS011;37545;45.302;-122.946;2022-11-25T11:05:44;9.60;;;5.30;;
51467;SDS011;37545;45.302;-122.946;2022-11-25T11:08:16;14.88;;;6.35;;
51467;SDS011;37545;45.302;-122.946;2022-11-25T11:10:47;11.82;;;6.78;;
51467;SDS011;37545;45.302;-122.946;2022-11-25T11:13:38;13.90;;;5.75;;
51467;SDS011;37545;45.302;-122.946;2022-11-25T11:16:19;14.32;;;6.18;;
51467;SDS011;37545;45.302;-122.946;2022-11-25T11:18:52;14.02;;;5.40;;
51467;SDS011;37545;45.302;-122.946;2022-11-25T11:21:23;14.90;;;5.93;;
51467;SDS011;37545;45.302;-122.946;2022-11-25T11:23:56;15.68;;;6.22;;
51467;SDS011;37545;45.302;-122.946;2022-11-25T11:26:26;12.25;;;5.75;;
51467;SDS011;37545;45.302;-122.946;2022-11-25T11:28:59;14.27;;;5.93;;
51467;SDS011;37545;45.302;-122.946;2022-11-25T11:31:31;10.10;;;4.68;;
51467;SDS011;37545;45.302;-122.946;2022-11-25T11:34:15;10.23;;;5.32;;
51467;SDS011;37545;45.302;-122.946;2022-11-25T11:37:00;12.75;;;5.82;;
51467;SDS011;37545;45.302;-122.946;2022-11-25T11:39:49;10.68;;;5.55;;
51467;SDS011;37545;45.302;-122.946;2022-11-25T11:42:31;12.43;;;5.72;;
51467;SDS011;37545;45.302;-122.946;2022-11-25T11:45:13;11.70;;;4.95;;
51467;SDS011;37545;45.302;-122.946;2022-11-25T11:47:57;11.65;;;5.50;;
51467;SDS011;37545;45.302;-122.946;2022-11-25T11:50:38;15.63;;;5.63;;
51467;SDS011;37545;45.302;-122.946;2022-11-25T11:53:10;12.27;;;5.35;;
51467;SDS011;37545;45.302;-122.946;2022-11-25T11:55:53;12.25;;;4.65;;
51467;SDS011;37545;45.302;-122.946;2022-11-25T11:58:31;21.88;;;6.40;;
51467;SDS011;37545;45.302;-122.946;2022-11-25T12:01:13;20.15;;;6.13;;
51467;SDS011;37545;45.302;-122.946;2022-11-25T12:03:55;10.35;;;4.82;;
51467;SDS011;37545;45.302;-122.946;2022-11-25T12:06:28;13.07;;;6.20;;
51467;SDS011;37545;45.302;-122.946;2022-11-25T12:11:31;14.43;;;5.97;;
51467;SDS011;37545;45.302;-122.946;2022-11-25T12:14:08;12.43;;;6.03;;
51467;SDS011;37545;45.302;-122.946;2022-11-25T12:16:49;16.10;;;4.93;;
51467;SDS011;37545;45.302;-122.946;2022-11-25T12:19:25;11.30;;;6.22;;
51467;SDS011;37545;45.302;-122.946;2022-11-25T12:22:01;9.25;;;4.43;;
51467;SDS011;37545;45.302;-122.946;2022-11-25T12:24:35;9.10;;;4.35;;
51467;SDS011;37545;45.302;-122.946;2022-11-25T12:27:10;16.25;;;5.28;;
51467;SDS011;37545;45.302;-122.946;2022-11-25T12:29:44;10.13;;;5.13;;
51467;SDS011;37545;45.302;-122.946;2022-11-25T12:32:33;15.25;;;5.20;;
51467;SDS011;37545;45.302;-122.946;2022-11-25T12:35:23;12.55;;;4.68;;
51467;SDS011;37545;45.302;-122.946;2022-11-25T12:38:03;10.77;;;4.55;;
51467;SDS011;37545;45.302;-122.946;2022-11-25T12:40:41;12.70;;;5.68;;
51467;SDS011;37545;45.302;-122.946;2022-11-25T12:43:21;12.50;;;5.43;;
51467;SDS011;37545;45.302;-122.946;2022-11-25T12:46:02;19.63;;;4.75;;
51467;SDS011;37545;45.302;-122.946;2022-11-25T12:51:17;15.45;;;4.95;;
51467;SDS011;37545;45.302;-122.946;2022-11-25T12:56:32;11.77;;;4.78;;
51467;SDS011;37545;45.302;-122.946;2022-11-25T12:59:20;9.38;;;5.07;;
51467;SDS011;37545;45.302;-122.946;2022-11-25T13:02:18;10.50;;;4.03;;
51467;SDS011;37545;45.302;-122.946;2022-11-25T13:05:09;8.80;;;4.18;;
51467;SDS011;37545;45.302;-122.946;2022-11-25T13:07:54;10.20;;;4.65;;
51467;SDS011;37545;45.302;-122.946;2022-11-25T13:10:37;8.32;;;4.43;;
51467;SDS011;37545;45.302;-122.946;2022-11-25T13:16:03;8.63;;;4.60;;
51467;SDS011;37545;45.302;-122.946;2022-11-25T13:18:36;9.40;;;3.67;;
51467;SDS011;37545;45.302;-122.946;2022-11-25T13:21:10;8.65;;;4.10;;
51467;SDS011;37545;45.302;-122.946;2022-11-25T13:23:42;8.55;;;4.68;;
51467;SDS011;37545;45.302;-122.946;2022-11-25T13:32:11;9.73;;;4.18;;
51467;SDS011;37545;45.302;-122.946;2022-11-25T13:38:07;9.73;;;4.78;;
51467;SDS011;37545;45.302;-122.946;2022-11-25T13:40:55;9.07;;;4.22;;
51467;SDS011;37545;45.302;-122.946;2022-11-25T13:43:24;8.25;;;4.68;;
51467;SDS011;37545;45.302;-122.946;2022-11-25T13:45:53;9.15;;;3.60;;
51467;SDS011;37545;45.302;-122.946;2022-11-25T13:48:23;9.32;;;4.35;;
51467;SDS011;37545;45.302;-122.946;2022-11-25T13:53:50;8.50;;;4.20;;
51467;SDS011;37545;45.302;-122.946;2022-11-25T13:56:25;9.55;;;4.63;;
51467;SDS011;37545;45.302;-122.946;2022-11-25T14:01:53;10.43;;;3.78;;
51467;SDS011;37545;45.302;-122.946;2022-11-25T14:04:24;6.60;;;3.58;;
51467;SDS011;37545;45.302;-122.946;2022-11-25T14:07:10;10.88;;;4.45;;
51467;SDS011;37545;45.302;-122.946;2022-11-25T14:09:54;9.00;;;3.78;;
51467;SDS011;37545;45.302;-122.946;2022-11-25T14:15:42;7.78;;;3.70;;
51467;SDS011;37545;45.302;-122.946;2022-11-25T14:21:08;12.75;;;5.65;;
51467;SDS011;37545;45.302;-122.946;2022-11-25T14:23:58;7.07;;;3.63;;
51467;SDS011;37545;45.302;-122.946;2022-11-25T14:26:43;7.88;;;3.60;;
51467;SDS011;37545;45.302;-122.946;2022-11-25T14:29:14;5.43;;;3.03;;
51467;SDS011;37545;45.302;-122.946;2022-11-25T14:31:49;7.28;;;4.00;;
51467;SDS011;37545;45.302;-122.946;2022-11-25T14:34:22;7.18;;;3.45;;
51467;SDS011;37545;45.302;-122.946;2022-11-25T14:36:55;6.75;;;3.17;;
51467;SDS011;37545;45.302;-122.946;2022-11-25T14:39:32;8.73;;;3.75;;
51467;SDS011;37545;45.302;-122.946;2022-11-25T14:42:08;6.88;;;2.90;;
51467;SDS011;37545;45.302;-122.946;2022-11-25T14:44:44;9.75;;;3.53;;
51467;SDS011;37545;45.302;-122.946;2022-11-25T14:47:19;6.25;;;3.60;;
51467;SDS011;37545;45.302;-122.946;2022-11-25T14:49:49;8.73;;;4.18;;
51467;SDS011;37545;45.302;-122.946;2022-11-25T14:52:20;6.85;;;3.50;;
51467;SDS011;37545;45.302;-122.946;2022-11-25T14:54:51;5.22;;;2.80;;
51467;SDS011;37545;45.302;-122.946;2022-11-25T14:57:24;6.38;;;2.78;;
51467;SDS011;37545;45.302;-122.946;2022-11-25T15:02:24;6.10;;;3.10;;
51467;SDS011;37545;45.302;-122.946;2022-11-25T15:07:53;6.03;;;3.55;;
51467;SDS011;37545;45.302;-122.946;2022-11-25T15:10:35;8.05;;;3.67;;
51467;SDS011;37545;45.302;-122.946;2022-11-25T15:13:13;4.87;;;3.10;;
51467;SDS011;37545;45.302;-122.946;2022-11-25T15:15:51;7.60;;;3.43;;
51467;SDS011;37545;45.302;-122.946;2022-11-25T15:18:22;6.90;;;3.08;;